Time;durP1;ratioP1;P1;durP2;ratioP2;P2;SDS_P1;SDS_P2;PMS_P1;PMS_P2;Temp;Humidity;BMP_temperature;BMP_pressure;BME280_temperature;BME280_humidity;BME280_pressure;Samples;Min_cycle;Max_cycle;Signal;HPM_P1;HPM_P2
2022/12/11 00:01:53;;;;;;;38.42;25.15;;;27.50;99.90;;;;;;5075818;28;20509;-68
2022/12/11 00:04:20;;;;;;;41.03;25.67;;;27.50;99.90;;;;;;5061805;28;20032;-67
2022/12/11 00:06:49;;;;;;;40.17;26.90;;;27.50;99.90;;;;;;5057374;28;20434;-67
2022/12/11 00:09:17;;;;;;;41.05;28.08;;;27.50;99.90;;;;;;5055736;28;20028;-67
2022/12/11 00:11:43;;;;;;;54.42;32.00;;;27.50;99.90;;;;;;5057539;28;20032;-64
2022/12/11 00:14:10;;;;;;;44.33;31.42;;;27.60;99.90;;;;;;5068336;28;20473;-67
2022/12/11 00:16:37;;;;;;;51.53;32.05;;;27.70;99.90;;;;;;5057705;28;20486;-69
2022/12/11 00:19:04;;;;;;;46.85;31.95;;;27.60;99.90;;;;;;5067845;28;20025;-71
2022/12/11 00:21:30;;;;;;;57.53;38.45;;;27.60;99.90;;;;;;5068538;28;20021;-69
2022/12/11 00:23:57;;;;;;;62.58;40.22;;;27.60;99.90;;;;;;5056494;28;20029;-71
2022/12/11 00:26:24;;;;;;;64.50;40.55;;;27.60;99.90;;;;;;5072842;28;20020;-71
2022/12/11 00:28:54;;;;;;;59.20;39.22;;;27.70;99.90;;;;;;5061085;28;20178;-72
2022/12/11 00:31:22;;;;;;;60.63;38.95;;;27.70;99.90;;;;;;5065746;23;20430;-71
2022/12/11 00:33:50;;;;;;;48.30;34.10;;;27.70;99.90;;;;;;5030672;28;20391;-69
2022/12/11 00:36:21;;;;;;;53.95;35.33;;;27.80;99.90;;;;;;5022510;28;20029;-71
2022/12/11 00:38:48;;;;;;;46.97;33.30;;;27.80;99.90;;;;;;5029260;28;20110;-67
2022/12/11 00:41:16;;;;;;;44.30;30.65;;;27.80;99.90;;;;;;5015496;28;20267;-69
2022/12/11 00:43:43;;;;;;;42.17;30.90;;;27.80;99.90;;;;;;5017358;28;20113;-68
2022/12/11 00:46:10;;;;;;;48.10;29.35;;;27.80;99.90;;;;;;5018304;28;20022;-67
2022/12/11 00:48:37;;;;;;;44.30;26.92;;;27.90;99.90;;;;;;5024628;28;20030;-69
2022/12/11 00:51:04;;;;;;;39.42;27.80;;;27.90;99.90;;;;;;5017296;28;20402;-68
2022/12/11 00:53:30;;;;;;;40.03;26.52;;;28.00;99.90;;;;;;5027192;28;20030;-68
2022/12/11 00:55:57;;;;;;;32.28;22.52;;;28.00;99.90;;;;;;5025060;28;20181;-67
2022/12/11 00:58:23;;;;;;;33.78;23.83;;;28.10;99.90;;;;;;5025853;28;20029;-67
2022/12/11 01:00:50;;;;;;;35.25;21.90;;;28.10;99.90;;;;;;5020759;28;20021;-67
2022/12/11 01:03:17;;;;;;;41.28;24.88;;;28.20;99.90;;;;;;5027769;28;20080;-68
2022/12/11 01:05:55;;;;;;;53.95;35.35;;;28.20;99.90;;;;;;5025082;28;20052;-66
2022/12/11 01:08:22;;;;;;;68.85;45.95;;;28.30;99.90;;;;;;5028849;28;20037;-68
2022/12/11 01:10:48;;;;;;;38.47;25.52;;;28.30;99.90;;;;;;5026315;28;20048;-67
2022/12/11 01:13:15;;;;;;;29.92;18.88;;;28.30;99.90;;;;;;5024582;28;20087;-69
2022/12/11 01:15:44;;;;;;;35.92;18.35;;;28.40;99.90;;;;;;5025842;28;20027;-69
2022/12/11 01:18:13;;;;;;;27.83;14.60;;;28.40;99.90;;;;;;5023382;28;20038;-69
2022/12/11 01:20:41;;;;;;;23.80;14.38;;;28.40;99.90;;;;;;5024275;28;20022;-72
2022/12/11 01:23:11;;;;;;;28.95;14.30;;;28.40;99.90;;;;;;5023120;28;20033;-68
2022/12/11 01:25:38;;;;;;;17.92;12.57;;;28.50;99.90;;;;;;5013268;28;20026;-69
2022/12/11 01:28:05;;;;;;;24.15;14.00;;;28.50;99.90;;;;;;5019145;28;20065;-69
2022/12/11 01:30:32;;;;;;;27.45;14.70;;;28.60;99.90;;;;;;5023583;28;20061;-70
2022/12/11 01:32:59;;;;;;;22.20;13.85;;;28.60;99.90;;;;;;5023357;28;20049;-69
2022/12/11 01:35:27;;;;;;;19.77;13.63;;;28.60;99.90;;;;;;5023854;28;20021;-69
2022/12/11 01:37:53;;;;;;;24.17;14.32;;;28.60;99.90;;;;;;5016560;28;20060;-67
2022/12/11 01:40:21;;;;;;;21.50;14.75;;;28.70;99.90;;;;;;5024185;28;20014;-66
2022/12/11 01:42:48;;;;;;;29.27;17.45;;;28.70;99.90;;;;;;5016141;28;20053;-68
2022/12/11 01:45:29;;;;;;;27.20;14.70;;;28.70;99.90;;;;;;5010194;28;20522;-70
2022/12/11 01:48:18;;;;;;;31.25;16.98;;;28.70;99.90;;;;;;5009924;28;20379;-68
2022/12/11 01:50:51;;;;;;;26.40;15.88;;;28.80;99.90;;;;;;4935309;29;20074;-69
2022/12/11 01:53:24;;;;;;;26.35;14.57;;;28.80;99.90;;;;;;4937273;29;20027;-75
2022/12/11 01:55:54;;;;;;;29.27;16.05;;;28.80;99.90;;;;;;4935522;29;20035;-70
2022/12/11 01:58:23;;;;;;;27.83;16.98;;;28.80;99.90;;;;;;4953465;29;20452;-72
2022/12/11 02:00:52;;;;;;;29.85;17.17;;;28.80;99.90;;;;;;4949519;29;20135;-71
2022/12/11 02:03:18;;;;;;;28.30;16.55;;;28.80;99.90;;;;;;4945717;29;20059;-71
2022/12/11 02:05:45;;;;;;;19.52;11.35;;;28.90;99.90;;;;;;4947386;29;20039;-70
2022/12/11 02:08:13;;;;;;;14.68;9.35;;;28.90;99.90;;;;;;4947057;29;20108;-69
2022/12/11 02:10:47;;;;;;;19.02;11.25;;;28.90;99.90;;;;;;4944070;29;20621;-68
2022/12/11 02:13:39;;;;;;;16.90;9.25;;;29.00;99.90;;;;;;4946461;29;20039;-69
2022/12/11 02:16:45;;;;;;;19.98;10.02;;;29.00;99.90;;;;;;4904696;29;20148;-70
2022/12/11 02:19:32;;;;;;;20.92;11.98;;;29.00;99.90;;;;;;4833063;29;20042;-68
2022/12/11 02:22:01;;;;;;;19.33;11.73;;;29.10;99.90;;;;;;4873253;29;20032;-67
2022/12/11 02:24:57;;;;;;;22.77;10.07;;;29.20;99.90;;;;;;4883925;29;20486;-68
2022/12/11 02:27:31;;;;;;;19.75;13.07;;;29.20;99.90;;;;;;4884741;29;20395;-72
2022/12/11 02:30:18;;;;;;;23.63;12.35;;;29.30;99.90;;;;;;4885202;29;20041;-66
2022/12/11 02:32:46;;;;;;;22.05;10.82;;;29.30;99.90;;;;;;4883176;29;20600;-68
2022/12/11 02:35:22;;;;;;;13.65;9.18;;;29.30;99.90;;;;;;4887864;29;20028;-68
2022/12/11 02:37:57;;;;;;;16.70;8.52;;;29.30;99.90;;;;;;4888537;29;20039;-66
2022/12/11 02:40:27;;;;;;;14.55;6.63;;;29.40;99.90;;;;;;4889855;29;20060;-66
2022/12/11 02:42:56;;;;;;;17.48;6.93;;;29.40;99.90;;;;;;4889466;29;20029;-67
2022/12/11 02:45:25;;;;;;;13.45;6.40;;;29.50;99.90;;;;;;4890180;29;20652;-68
2022/12/11 02:47:52;;;;;;;10.57;7.15;;;29.60;99.90;;;;;;4889857;29;20049;-67
2022/12/11 02:50:22;;;;;;;17.92;8.00;;;29.60;99.90;;;;;;4943186;29;20070;-66
2022/12/11 02:52:52;;;;;;;13.15;6.35;;;29.70;99.90;;;;;;4976223;28;20084;-69
2022/12/11 02:55:20;;;;;;;14.20;7.15;;;29.60;99.90;;;;;;5025224;28;20566;-69
2022/12/11 02:58:04;;;;;;;11.60;5.88;;;29.60;99.90;;;;;;5022808;28;20061;-70
2022/12/11 03:00:32;;;;;;;9.77;5.85;;;29.60;99.90;;;;;;5021316;28;20096;-68
2022/12/11 03:02:58;;;;;;;10.23;6.93;;;29.60;99.90;;;;;;5021935;28;20076;-69
2022/12/11 03:05:26;;;;;;;13.80;7.57;;;29.70;99.90;;;;;;5021946;28;20018;-69
2022/12/11 03:07:53;;;;;;;11.27;8.18;;;29.70;99.90;;;;;;5022431;28;20379;-69
2022/12/11 03:10:20;;;;;;;14.82;6.88;;;29.70;99.90;;;;;;5026344;28;20029;-69
2022/12/11 03:12:51;;;;;;;9.98;4.75;;;29.80;99.90;;;;;;5028500;28;20025;-69
2022/12/11 03:15:22;;;;;;;8.05;5.28;;;29.80;99.90;;;;;;5026713;28;20105;-68
2022/12/11 03:18:08;;;;;;;11.03;5.97;;;29.90;99.90;;;;;;5027777;28;20037;-68
2022/12/11 03:20:46;;;;;;;11.55;6.63;;;29.90;99.90;;;;;;5026792;28;20033;-68
2022/12/11 03:23:26;;;;;;;13.65;6.32;;;29.90;99.90;;;;;;5027789;28;20032;-68
2022/12/11 03:25:58;;;;;;;13.13;5.57;;;29.90;99.90;;;;;;5027459;28;20022;-69
2022/12/11 03:28:50;;;;;;;9.00;5.28;;;29.90;99.90;;;;;;5027693;28;20049;-69
2022/12/11 03:31:28;;;;;;;10.00;4.78;;;30.00;99.90;;;;;;5023115;28;20513;-70
2022/12/11 03:34:00;;;;;;;9.00;5.28;;;30.00;99.90;;;;;;5025628;28;20446;-67
2022/12/11 03:36:31;;;;;;;11.45;6.90;;;30.00;99.90;;;;;;5025857;28;20044;-68
2022/12/11 03:39:06;;;;;;;11.45;6.03;;;30.10;99.90;;;;;;5023222;28;20036;-67
2022/12/11 03:41:37;;;;;;;10.18;5.35;;;30.10;99.90;;;;;;5024913;28;20226;-67
2022/12/11 03:44:04;;;;;;;10.50;6.90;;;30.10;99.90;;;;;;5026749;28;20028;-67
2022/12/11 03:46:34;;;;;;;10.00;5.78;;;30.20;99.90;;;;;;5026983;28;20048;-67
2022/12/11 03:49:06;;;;;;;9.30;5.47;;;30.20;99.90;;;;;;5026196;28;20124;-68
2022/12/11 03:51:34;;;;;;;12.20;6.00;;;30.20;99.90;;;;;;5025163;28;20029;-67
2022/12/11 03:54:01;;;;;;;13.82;5.97;;;30.20;99.90;;;;;;5026050;28;20467;-67
2022/12/11 03:56:32;;;;;;;12.43;6.15;;;30.20;99.90;;;;;;5026395;28;20040;-67
2022/12/11 03:58:58;;;;;;;10.88;6.35;;;30.20;99.90;;;;;;5022711;28;20029;-70
2022/12/11 04:01:25;;;;;;;8.88;6.38;;;30.20;99.90;;;;;;5025735;28;20352;-66
2022/12/11 04:03:51;;;;;;;11.85;6.53;;;30.20;99.90;;;;;;5007133;28;20426;-66
2022/12/11 04:06:18;;;;;;;15.95;6.82;;;30.20;99.90;;;;;;5021641;28;20026;-67
2022/12/11 04:08:44;;;;;;;9.80;7.07;;;30.20;99.90;;;;;;5027654;28;20038;-67
2022/12/11 04:16:44;;;;;;;9.80;5.88;;;30.30;99.90;;;;;;5021351;28;20076;-67
2022/12/11 04:24:33;;;;;;;15.70;7.72;;;30.50;99.90;;;;;;5025580;28;20017;-66
2022/12/11 04:27:00;;;;;;;11.80;7.80;;;30.50;99.90;;;;;;5024501;28;20022;-69
2022/12/11 04:29:26;;;;;;;10.93;6.03;;;30.60;99.90;;;;;;5024261;28;20020;-68
2022/12/11 04:31:53;;;;;;;10.05;5.38;;;30.60;99.90;;;;;;5024306;28;20084;-67
2022/12/11 04:34:20;;;;;;;9.07;5.28;;;30.60;99.90;;;;;;5024209;28;20041;-67
2022/12/11 04:36:46;;;;;;;10.10;5.03;;;30.50;99.90;;;;;;5021793;28;20101;-68
2022/12/11 04:39:13;;;;;;;8.63;5.20;;;30.60;99.90;;;;;;5023139;28;20360;-67
2022/12/11 04:41:40;;;;;;;7.78;4.50;;;30.70;99.90;;;;;;5022670;28;20018;-67
2022/12/11 04:44:07;;;;;;;12.15;5.88;;;30.70;99.90;;;;;;5023242;28;20061;-68
2022/12/11 04:46:34;;;;;;;10.23;5.78;;;30.80;99.90;;;;;;5024486;28;20014;-67
2022/12/11 04:49:01;;;;;;;10.45;5.78;;;30.70;99.90;;;;;;5023084;28;20029;-68
2022/12/11 04:51:28;;;;;;;14.65;5.45;;;30.80;99.90;;;;;;5022857;28;20024;-68
2022/12/11 04:53:55;;;;;;;7.97;4.70;;;30.80;99.90;;;;;;5024403;28;20390;-67
2022/12/11 04:56:21;;;;;;;11.30;5.50;;;30.90;99.90;;;;;;5022858;28;20391;-71
2022/12/11 04:58:48;;;;;;;10.20;6.15;;;30.90;99.90;;;;;;5022638;28;20434;-69
2022/12/11 05:01:18;;;;;;;9.52;5.60;;;31.00;99.90;;;;;;5023820;28;20024;-67
2022/12/11 05:03:46;;;;;;;9.25;5.55;;;31.00;99.90;;;;;;5024762;28;20371;-69
2022/12/11 05:06:12;;;;;;;10.80;5.82;;;31.00;99.90;;;;;;5022960;28;20036;-68
2022/12/11 05:08:43;;;;;;;9.25;4.93;;;31.10;99.90;;;;;;5021740;28;20030;-66
2022/12/11 05:11:12;;;;;;;8.53;3.70;;;31.10;99.90;;;;;;5022497;28;20021;-68
2022/12/11 05:13:39;;;;;;;9.00;4.00;;;31.10;99.90;;;;;;5018085;28;20033;-68
2022/12/11 05:16:08;;;;;;;9.45;3.53;;;31.10;99.90;;;;;;5022654;28;20029;-68
2022/12/11 05:18:35;;;;;;;9.68;4.15;;;31.10;99.90;;;;;;5019292;28;20080;-68
2022/12/11 05:21:04;;;;;;;6.40;3.90;;;31.10;99.90;;;;;;5020717;28;20096;-69
2022/12/11 05:23:31;;;;;;;10.90;5.22;;;31.30;99.90;;;;;;5021262;28;20433;-67
2022/12/11 05:26:01;;;;;;;11.02;3.92;;;31.40;99.90;;;;;;5023552;28;20021;-69
2022/12/11 05:28:30;;;;;;;7.65;3.67;;;31.50;99.90;;;;;;5023124;28;20534;-69
2022/12/11 05:30:58;;;;;;;7.90;3.00;;;31.60;99.90;;;;;;5021504;28;20046;-68
2022/12/11 05:33:25;;;;;;;6.95;3.00;;;31.60;99.90;;;;;;5022218;28;20025;-68
2022/12/11 05:35:52;;;;;;;3.70;3.08;;;31.60;99.90;;;;;;5024045;28;20615;-68
2022/12/11 05:38:19;;;;;;;6.88;3.55;;;31.50;99.90;;;;;;5021809;28;20464;-68
2022/12/11 05:40:55;;;;;;;7.82;4.03;;;31.50;99.90;;;;;;5022245;28;20025;-69
2022/12/11 05:43:22;;;;;;;4.15;3.17;;;31.60;99.90;;;;;;5013880;28;20018;-66
2022/12/11 05:45:48;;;;;;;15.02;5.47;;;31.50;99.90;;;;;;5014022;28;20148;-68
2022/12/11 05:48:15;;;;;;;7.68;3.47;;;31.50;99.90;;;;;;5013779;28;20045;-67
2022/12/11 05:50:41;;;;;;;6.72;3.30;;;31.60;99.90;;;;;;5014011;28;20479;-68
2022/12/11 05:53:08;;;;;;;11.93;4.38;;;31.70;99.90;;;;;;5007615;28;20040;-67
2022/12/11 05:55:35;;;;;;;8.85;4.95;;;31.70;99.90;;;;;;4997733;28;20045;-68
2022/12/11 05:58:01;;;;;;;6.85;3.58;;;31.70;99.90;;;;;;4994180;28;20022;-69
2022/12/11 06:00:28;;;;;;;21.77;14.45;;;31.70;99.90;;;;;;4994226;28;20517;-68
2022/12/11 06:02:54;;;;;;;7.90;5.05;;;31.70;99.90;;;;;;4993993;28;20026;-68
2022/12/11 06:05:21;;;;;;;7.50;4.43;;;31.80;99.90;;;;;;4994071;28;20031;-70
2022/12/11 06:07:47;;;;;;;6.97;3.53;;;31.90;99.90;;;;;;4994112;28;20034;-69
2022/12/11 06:10:14;;;;;;;7.88;4.13;;;31.90;99.90;;;;;;4993630;28;20085;-68
2022/12/11 06:12:41;;;;;;;7.40;4.75;;;31.90;99.90;;;;;;4994055;28;20022;-68
2022/12/11 06:15:07;;;;;;;7.65;3.83;;;32.00;99.90;;;;;;4993909;28;20034;-69
2022/12/11 06:17:34;;;;;;;7.43;3.65;;;32.00;99.90;;;;;;5010253;28;20033;-68
2022/12/11 06:20:03;;;;;;;3.42;2.47;;;32.10;99.90;;;;;;5014082;28;20073;-69
2022/12/11 06:22:30;;;;;;;7.00;3.58;;;32.10;99.90;;;;;;5013642;28;20470;-70
2022/12/11 06:24:56;;;;;;;5.72;3.38;;;32.20;99.90;;;;;;5013634;28;20489;-69
2022/12/11 06:27:23;;;;;;;11.70;3.67;;;32.20;99.90;;;;;;5018642;28;20022;-70
2022/12/11 06:29:49;;;;;;;6.28;3.60;;;32.20;99.90;;;;;;5023487;28;20020;-70
2022/12/11 06:32:17;;;;;;;6.38;3.42;;;32.40;99.90;;;;;;5025468;28;20052;-70
2022/12/11 06:34:43;;;;;;;6.32;2.35;;;32.50;99.90;;;;;;5027306;28;20026;-68
2022/12/11 06:37:10;;;;;;;3.65;2.42;;;32.60;99.90;;;;;;5021673;28;20014;-68
2022/12/11 06:39:37;;;;;;;6.78;4.07;;;32.70;99.90;;;;;;5023100;28;20057;-68
2022/12/11 06:42:03;;;;;;;9.30;4.07;;;32.60;99.90;;;;;;5022806;28;20014;-68
2022/12/11 06:44:30;;;;;;;3.17;2.35;;;32.70;99.90;;;;;;5020277;28;20080;-68
2022/12/11 06:46:56;;;;;;;8.77;5.40;;;32.70;99.40;;;;;;5023980;28;20028;-65
2022/12/11 06:49:23;;;;;;;7.07;3.30;;;32.70;99.90;;;;;;5023155;28;20033;-69
2022/12/11 06:51:50;;;;;;;2.60;1.70;;;32.70;99.10;;;;;;5021461;28;20022;-69
2022/12/11 06:54:16;;;;;;;1.98;1.83;;;32.70;97.30;;;;;;5023394;28;20025;-69
2022/12/11 06:56:43;;;;;;;4.63;1.92;;;32.70;97.90;;;;;;5022975;28;20613;-69
2022/12/11 06:59:11;;;;;;;4.78;1.60;;;32.70;97.90;;;;;;5021528;28;20033;-68
2022/12/11 07:01:39;;;;;;;4.32;2.42;;;32.70;99.00;;;;;;5023349;28;20009;-69
2022/12/11 07:04:06;;;;;;;12.93;2.95;;;32.70;99.10;;;;;;5026575;28;20018;-68
2022/12/11 07:06:32;;;;;;;2.80;2.17;;;32.70;99.90;;;;;;5015440;28;20434;-69
2022/12/11 07:08:59;;;;;;;6.68;2.78;;;32.80;99.90;;;;;;5033021;28;20429;-69
2022/12/11 07:11:25;;;;;;;7.60;3.05;;;32.80;99.90;;;;;;5033001;28;20108;-68
2022/12/11 07:13:52;;;;;;;7.53;3.70;;;32.80;99.90;;;;;;5033135;28;20022;-69
2022/12/11 07:16:19;;;;;;;4.70;2.90;;;32.80;99.80;;;;;;5033853;28;20359;-69
2022/12/11 07:18:49;;;;;;;11.43;5.38;;;32.90;99.90;;;;;;5032897;28;20025;-70
2022/12/11 07:21:16;;;;;;;6.28;3.05;;;32.90;99.70;;;;;;5035040;28;20182;-68
2022/12/11 07:23:43;;;;;;;14.25;7.00;;;32.90;99.60;;;;;;5036859;28;20023;-69
2022/12/11 07:26:13;;;;;;;23.45;15.30;;;33.10;99.10;;;;;;5036531;28;20053;-69
2022/12/11 07:28:40;;;;;;;18.38;8.18;;;33.10;98.30;;;;;;5037265;28;20100;-69
2022/12/11 07:31:11;;;;;;;13.05;7.93;;;33.10;99.10;;;;;;5027341;28;20098;-67
2022/12/11 07:33:38;;;;;;;14.32;7.28;;;33.10;99.90;;;;;;5029224;28;20124;-69
2022/12/11 07:36:08;;;;;;;5.53;2.47;;;33.10;99.40;;;;;;5027250;28;20525;-67
2022/12/11 07:38:34;;;;;;;5.80;3.03;;;33.30;97.40;;;;;;5024327;28;20087;-69
2022/12/11 07:41:06;;;;;;;6.63;3.53;;;33.40;97.70;;;;;;5023423;28;20061;-68
2022/12/11 07:43:34;;;;;;;4.28;3.15;;;33.30;98.00;;;;;;5025424;28;20025;-66
2022/12/11 07:46:02;;;;;;;6.35;2.63;;;33.30;97.60;;;;;;5023279;28;20410;-67
2022/12/11 07:48:29;;;;;;;10.98;3.30;;;33.30;97.60;;;;;;5024969;28;20032;-67
2022/12/11 07:51:06;;;;;;;6.70;3.22;;;33.30;98.20;;;;;;5006484;28;20530;-68
2022/12/11 07:53:32;;;;;;;12.50;3.38;;;33.40;98.20;;;;;;5024682;28;20021;-67
2022/12/11 07:55:59;;;;;;;7.40;3.63;;;33.40;98.10;;;;;;5023962;28;20026;-68
2022/12/11 07:58:26;;;;;;;12.05;3.90;;;33.40;98.00;;;;;;5023963;28;20497;-67
2022/12/11 08:00:53;;;;;;;10.15;4.72;;;33.40;98.60;;;;;;5024341;28;20029;-67
2022/12/11 08:03:19;;;;;;;16.58;5.00;;;33.50;97.50;;;;;;5022754;28;20045;-67
2022/12/11 08:05:50;;;;;;;8.35;4.43;;;33.40;97.20;;;;;;5024025;28;20017;-67
2022/12/11 08:08:18;;;;;;;6.63;3.50;;;33.40;97.30;;;;;;5025447;28;20032;-67
2022/12/11 08:10:44;;;;;;;8.70;4.63;;;33.40;97.20;;;;;;5026226;28;20025;-67
2022/12/11 08:13:11;;;;;;;8.23;4.25;;;33.40;96.50;;;;;;5028932;28;20027;-70
2022/12/11 08:15:38;;;;;;;8.38;3.30;;;33.40;97.30;;;;;;5018711;28;20025;-67
2022/12/11 08:18:05;;;;;;;8.88;4.90;;;33.40;97.10;;;;;;5015154;28;20038;-66
2022/12/11 08:20:32;;;;;;;11.80;5.95;;;33.40;98.00;;;;;;5017521;28;20511;-66
2022/12/11 08:22:59;;;;;;;31.23;15.65;;;33.40;98.70;;;;;;5018130;28;20017;-67
2022/12/11 08:25:25;;;;;;;20.10;10.13;;;33.40;98.20;;;;;;5015702;28;20475;-67
2022/12/11 08:27:52;;;;;;;13.25;4.38;;;33.50;97.50;;;;;;5017869;28;20026;-66
2022/12/11 08:30:18;;;;;;;9.65;3.80;;;33.50;97.50;;;;;;5020173;28;20021;-67
2022/12/11 08:32:45;;;;;;;5.32;2.83;;;33.50;97.40;;;;;;5022208;28;20064;-69
2022/12/11 08:35:11;;;;;;;8.48;3.10;;;33.50;96.70;;;;;;5022538;28;20429;-72
2022/12/11 08:37:39;;;;;;;14.05;3.17;;;33.40;97.50;;;;;;5023305;28;20021;-67
2022/12/11 08:40:06;;;;;;;8.70;3.33;;;33.40;97.50;;;;;;5023858;28;20430;-68
2022/12/11 08:42:33;;;;;;;8.57;2.88;;;33.40;97.90;;;;;;5024091;28;20030;-68
2022/12/11 08:44:59;;;;;;;6.25;2.90;;;33.40;97.80;;;;;;5017130;28;20434;-69
2022/12/11 08:47:26;;;;;;;3.72;2.00;;;33.40;97.00;;;;;;5019659;28;20022;-68
2022/12/11 08:49:53;;;;;;;2.97;2.10;;;33.40;96.80;;;;;;5015265;28;20026;-69
2022/12/11 08:52:20;;;;;;;3.78;2.13;;;33.40;96.20;;;;;;5014277;28;20018;-70
2022/12/11 08:54:47;;;;;;;8.43;3.40;;;33.40;96.30;;;;;;5008770;28;20028;-69
2022/12/11 08:57:14;;;;;;;9.73;3.05;;;33.40;97.40;;;;;;5008701;28;20064;-66
2022/12/11 08:59:41;;;;;;;15.93;4.93;;;33.40;97.10;;;;;;5003282;28;20375;-68
2022/12/11 09:02:11;;;;;;;8.18;4.53;;;33.40;96.90;;;;;;5019495;28;20025;-70
2022/12/11 09:04:38;;;;;;;13.43;5.72;;;33.40;96.50;;;;;;5015024;28;20061;-66
2022/12/11 09:07:04;;;;;;;29.83;17.33;;;33.40;97.10;;;;;;5014309;28;20029;-65
2022/12/11 09:09:31;;;;;;;16.10;5.35;;;33.40;97.30;;;;;;5008944;28;20038;-70
2022/12/11 09:12:00;;;;;;;14.00;7.03;;;33.50;97.10;;;;;;5010553;28;20030;-67
2022/12/11 09:14:27;;;;;;;8.27;4.63;;;33.50;97.20;;;;;;5014464;28;20028;-67
2022/12/11 09:16:53;;;;;;;14.35;6.30;;;33.40;95.60;;;;;;5014513;28;20490;-67
2022/12/11 09:19:20;;;;;;;10.35;5.95;;;33.40;96.50;;;;;;5014567;28;20030;-66
2022/12/11 09:21:46;;;;;;;14.68;6.93;;;33.40;96.60;;;;;;5014131;28;20022;-64
2022/12/11 09:24:14;;;;;;;29.27;12.07;;;33.40;96.70;;;;;;5022714;28;20022;-66
2022/12/11 09:26:41;;;;;;;22.35;10.15;;;33.40;97.10;;;;;;5024444;28;20087;-67
2022/12/11 09:29:08;;;;;;;24.27;11.90;;;33.30;97.80;;;;;;5022098;28;20033;-69
2022/12/11 09:31:36;;;;;;;6.68;3.35;;;33.40;97.10;;;;;;5020228;28;20136;-70
2022/12/11 09:34:06;;;;;;;8.30;4.50;;;33.20;96.10;;;;;;5024167;28;20100;-69
2022/12/11 09:36:33;;;;;;;13.07;4.25;;;33.20;95.80;;;;;;5007641;28;20072;-71
2022/12/11 09:39:01;;;;;;;10.02;5.60;;;33.20;95.80;;;;;;5011762;28;20046;-68
2022/12/11 09:41:44;;;;;;;12.57;5.07;;;33.20;96.40;;;;;;5013100;28;20052;-70
2022/12/11 09:44:12;;;;;;;11.68;4.43;;;33.20;96.10;;;;;;5008909;28;20371;-73
2022/12/11 09:46:40;;;;;;;9.50;4.47;;;33.10;96.20;;;;;;5009963;28;20879;-70
2022/12/11 09:49:24;;;;;;;6.45;3.72;;;33.10;96.50;;;;;;5024031;28;20046;-69
2022/12/11 09:52:01;;;;;;;6.82;3.05;;;33.10;96.30;;;;;;5028666;28;20025;-72
2022/12/11 09:54:28;;;;;;;13.05;7.55;;;33.10;96.10;;;;;;5025651;28;20076;-73
2022/12/11 09:56:59;;;;;;;4.65;2.85;;;33.10;96.10;;;;;;5003988;28;20032;-68
2022/12/11 09:59:51;;;;;;;14.05;3.92;;;33.00;95.50;;;;;;5014910;28;20022;-68
2022/12/11 10:02:35;;;;;;;16.90;7.75;;;33.00;96.70;;;;;;4986959;28;20050;-70
2022/12/11 10:05:22;;;;;;;30.35;15.20;;;33.00;96.80;;;;;;4999484;28;20035;-69
2022/12/11 10:07:52;;;;;;;44.08;22.02;;;32.90;96.60;;;;;;5005015;28;20043;-71
2022/12/11 10:10:36;;;;;;;29.02;15.68;;;32.90;97.30;;;;;;4980417;28;20081;-70
2022/12/11 10:13:07;;;;;;;34.08;18.13;;;32.80;97.60;;;;;;4982022;28;20111;-70
2022/12/11 10:15:40;;;;;;;34.60;14.73;;;32.70;98.00;;;;;;4981313;28;20026;-71
2022/12/11 10:18:16;;;;;;;23.67;10.32;;;32.70;98.90;;;;;;4980665;28;20022;-71
2022/12/11 10:20:44;;;;;;;25.17;10.57;;;32.60;99.20;;;;;;4981972;28;20088;-68
2022/12/11 10:23:34;;;;;;;19.40;10.85;;;32.50;99.90;;;;;;4982834;28;20106;-70
2022/12/11 10:26:07;;;;;;;24.88;11.13;;;32.20;99.90;;;;;;4979519;28;20034;-69
2022/12/11 10:28:35;;;;;;;22.35;11.95;;;32.20;99.90;;;;;;4982501;28;20125;-68
2022/12/11 10:31:30;;;;;;;25.90;13.02;;;32.00;99.90;;;;;;4988777;28;20520;-70
2022/12/11 10:34:01;;;;;;;23.80;13.20;;;31.90;99.90;;;;;;4991377;28;20538;-69
2022/12/11 10:36:30;;;;;;;30.50;14.50;;;31.80;99.90;;;;;;4983248;28;20034;-70
2022/12/11 10:38:57;;;;;;;29.55;16.02;;;31.70;99.90;;;;;;4993017;28;20041;-70
2022/12/11 10:41:50;;;;;;;37.75;19.80;;;31.50;99.90;;;;;;5006586;28;20043;-71
2022/12/11 10:44:22;;;;;;;53.40;27.85;;;31.40;99.90;;;;;;5018085;28;20149;-70
2022/12/11 10:47:01;;;;;;;;;;;31.30;99.90;;;;;;5012719;28;20446;-73
2022/12/11 10:49:30;;;;;;;41.55;22.27;;;31.20;99.90;;;;;;4995884;28;20417;-72
2022/12/11 10:52:00;;;;;;;52.47;24.30;;;31.10;99.90;;;;;;4999662;28;20534;-70
2022/12/11 10:54:42;;;;;;;34.55;17.70;;;31.00;99.90;;;;;;5012557;28;20026;-75
2022/12/11 10:57:13;;;;;;;28.00;13.98;;;30.80;99.90;;;;;;5013137;28;20026;-71
2022/12/11 10:59:46;;;;;;;32.03;16.98;;;30.60;99.90;;;;;;5010100;28;20033;-67
2022/12/11 11:02:26;;;;;;;36.00;16.48;;;30.60;99.90;;;;;;5017877;28;20092;-67
2022/12/11 11:04:55;;;;;;;28.13;14.55;;;30.50;99.90;;;;;;5013391;28;20045;-66
2022/12/11 11:07:24;;;;;;;32.17;19.58;;;30.40;99.90;;;;;;5013437;28;20048;-67
2022/12/11 11:10:04;;;;;;;17.58;10.07;;;30.30;99.90;;;;;;5015548;28;20113;-69
2022/12/11 11:12:38;;;;;;;27.80;12.45;;;30.20;99.90;;;;;;5014278;28;20022;-68
2022/12/11 11:15:19;;;;;;;23.17;9.65;;;30.10;99.90;;;;;;5020353;28;20041;-69
2022/12/11 11:17:52;;;;;;;20.38;7.93;;;30.00;99.90;;;;;;5020309;28;20052;-68
2022/12/11 11:20:22;;;;;;;12.45;6.85;;;29.90;99.90;;;;;;5016928;28;20041;-68
2022/12/11 11:22:54;;;;;;;16.08;6.45;;;29.60;99.90;;;;;;5017612;28;20021;-67
2022/12/11 11:25:23;;;;;;;15.77;10.65;;;29.40;99.90;;;;;;5014500;28;20040;-70
2022/12/11 11:27:54;;;;;;;22.70;11.82;;;29.20;99.90;;;;;;5009559;28;20035;-68
2022/12/11 11:30:27;;;;;;;23.40;12.65;;;29.20;99.90;;;;;;5010811;28;20030;-68
2022/12/11 11:33:16;;;;;;;26.27;13.35;;;29.20;99.90;;;;;;5010879;28;20041;-67
2022/12/11 11:35:55;;;;;;;42.65;20.17;;;29.30;99.90;;;;;;5007968;28;20027;-69
2022/12/11 11:38:27;;;;;;;55.45;35.65;;;29.30;99.90;;;;;;5008120;28;20476;-71
2022/12/11 11:41:12;;;;;;;16.15;8.35;;;29.40;99.90;;;;;;5010061;28;20069;-69
2022/12/11 11:44:02;;;;;;;30.77;14.02;;;29.40;99.90;;;;;;5012248;28;20049;-72
2022/12/11 11:46:42;;;;;;;33.33;19.23;;;29.40;99.90;;;;;;5006321;28;20022;-66
2022/12/11 11:49:22;;;;;;;42.83;25.15;;;29.40;99.90;;;;;;5006464;28;20302;-67
2022/12/11 11:52:18;;;;;;;26.05;14.00;;;29.40;99.90;;;;;;5011559;28;20025;-68
2022/12/11 11:55:05;;;;;;;31.45;15.50;;;29.40;99.90;;;;;;5008561;28;20443;-69
2022/12/11 11:57:36;;;;;;;19.52;7.78;;;29.40;99.90;;;;;;5013419;28;20033;-66
2022/12/11 12:00:16;;;;;;;21.37;7.03;;;29.40;99.90;;;;;;5027570;28;20029;-68
2022/12/11 12:02:42;;;;;;;20.05;8.05;;;29.30;99.90;;;;;;5025704;28;20254;-68
2022/12/11 12:05:12;;;;;;;17.40;9.38;;;29.20;99.90;;;;;;5026745;28;20017;-68
2022/12/11 12:07:39;;;;;;;22.92;11.90;;;29.30;99.90;;;;;;5025313;28;20194;-67
2022/12/11 12:10:31;;;;;;;21.85;9.43;;;29.20;99.90;;;;;;5022480;28;20030;-67
2022/12/11 12:13:05;;;;;;;41.03;23.98;;;29.10;99.90;;;;;;4939259;29;20599;-68
2022/12/11 12:15:52;;;;;;;27.80;13.55;;;29.20;99.90;;;;;;4940193;29;20047;-69
2022/12/11 12:18:47;;;;;;;28.20;13.32;;;29.20;99.90;;;;;;4943159;29;20078;-67
2022/12/11 12:21:34;;;;;;;28.80;11.23;;;29.20;99.90;;;;;;4947098;29;20378;-68
2022/12/11 12:24:21;;;;;;;36.75;19.67;;;29.20;99.90;;;;;;4937383;29;20043;-68
2022/12/11 12:27:15;;;;;;;28.58;13.75;;;29.10;99.90;;;;;;4932202;29;20119;-68
2022/12/11 12:30:01;;;;;;;22.60;8.52;;;29.10;99.90;;;;;;4885090;29;20029;-69
2022/12/11 12:32:58;;;;;;;30.90;19.10;;;29.00;99.90;;;;;;4889614;29;20119;-72
2022/12/11 12:35:37;;;;;;;27.27;13.32;;;29.10;99.90;;;;;;4871242;29;20507;-70
2022/12/11 12:38:12;;;;;;;23.55;12.02;;;29.00;99.90;;;;;;4867295;29;20053;-68
2022/12/11 12:40:48;;;;;;;24.13;12.63;;;29.00;99.90;;;;;;4866135;29;20046;-69
2022/12/11 12:43:44;;;;;;;26.67;12.05;;;28.90;99.90;;;;;;4870829;29;20512;-69
2022/12/11 12:46:56;;;;;;;49.63;31.48;;;28.90;99.90;;;;;;5072132;28;20414;-68
2022/12/11 12:49:45;;;;;;;68.00;36.58;;;28.90;99.90;;;;;;5032031;28;20229;-66
2022/12/11 12:52:18;;;;;;;68.55;34.13;;;28.90;99.90;;;;;;5049605;28;20021;-67
2022/12/11 12:55:12;;;;;;;35.70;18.83;;;28.90;99.90;;;;;;5070340;28;20422;-66
2022/12/11 12:57:35;;;;;;;54.97;31.63;;;28.90;99.90;;;;;;5071239;28;20100;-68
2022/12/11 13:00:03;;;;;;;48.17;24.65;;;28.90;99.90;;;;;;5056612;28;20017;-67
2022/12/11 13:02:30;;;;;;;48.33;32.30;;;28.80;99.90;;;;;;5052261;28;20023;-66
2022/12/11 13:05:02;;;;;;;46.35;25.70;;;28.80;99.90;;;;;;5053167;28;20056;-66
2022/12/11 13:07:30;;;;;;;;;;;28.80;99.90;;;;;;5052272;28;20060;-66